Decoded Metar for VOTR (TIRUCHCHIRAPPALLI in INDIA) (IATA:TRZ) | Meteo·Mobile Aviation Weather
aviador You're here:

VOTR Decoded Metar

TIRUCHCHIRAPPALLI in INDIA
Report Time2018-10-20 08:00:00
UTC Time2018-10-20 08:08:47
Flight Rules mvfr MVFR
Wind050° at 04 kt
W.Decomp.*RWY 09: 3.2 kt HW 2.5 kt LCW
W.Rank050° ranks 4
Current wind is below 050° avg. (5.8)
Visibility6000 m
Phenomena:Haze
Clouds:Scattered 016 Hf
Few TCU 020 Hf
Expected CloudBase > 4,000 ft AGL from Temp-Dew spread
CeilingNone
Temp32°C (ISA +18)
Dew Point22°C (55% RH)
Heat Index35.6°C
QNH1010 hPa
Density Alt2,743 ft
Elevation289 ft
Report Wrong Elevation
Raw Report
METAR VOTR 200800Z 05004KT 6000 HZ SCT016 FEW020TCU 32/22 Q1010
NOSIG=####018000072####
SAIN90 VASU 200800

Extra information for VOTR:More info

Metar Taf Metar & Taf Last 4 Metars F.Rules Stats Wind Profile Meteogram Temp Stats Airport Information Weather charts Add Link Nearby VenuesMetar ALERT Operation Metar Decoded Social comments